Time;durP1;ratioP1;P1;durP2;ratioP2;P2;SDS_P1;SDS_P2;PMS_P1;PMS_P2;Temp;Humidity;BMP_temperature;BMP_pressure;BME280_temperature;BME280_humidity;BME280_pressure;Samples;Min_cycle;Max_cycle;Signal;HPM_P1;HPM_P2
2024/04/16 00:00:28;;;;;;;18.60;9.40;;;;;;;8.43;83.35;98801.83;105636;1260;98098;-78
2024/04/16 00:03:34;;;;;;;22.50;10.30;;;;;;;8.41;83.72;98787.94;105632;1260;99553;-79
2024/04/16 00:06:20;;;;;;;21.50;9.80;;;;;;;8.36;83.75;98771.11;105524;1261;101354;-78
2024/04/16 00:09:05;;;;;;;22.20;10.20;;;;;;;8.33;84.00;98752.29;105599;1260;99124;-79
2024/04/16 00:11:51;;;;;;;17.50;10.20;;;;;;;8.33;84.39;98745.19;105740;1261;98664;-78
2024/04/16 00:14:55;;;;;;;17.30;9.50;;;;;;;8.32;84.63;98745.65;105460;1254;97954;-77
2024/04/16 00:17:43;;;;;;;22.80;9.30;;;;;;;8.31;84.77;98731.63;105609;1260;98322;-79
2024/04/16 00:20:29;;;;;;;14.80;8.90;;;;;;;8.30;85.04;98722.10;105544;1262;102617;-78
2024/04/16 00:23:15;;;;;;;16.50;9.00;;;;;;;8.31;85.40;98702.61;105433;1255;162682;-79
2024/04/16 00:26:00;;;;;;;20.80;10.20;;;;;;;8.29;85.43;98690.27;105571;1263;99061;-78
2024/04/16 00:28:45;;;;;;;20.60;10.10;;;;;;;8.27;85.80;98691.40;105567;1259;98848;-79
2024/04/16 00:31:31;;;;;;;18.00;9.30;;;;;;;8.26;85.88;98701.57;105496;1260;97893;-77
2024/04/16 00:34:16;;;;;;;21.10;9.80;;;;;;;8.25;86.15;98706.33;105581;1264;102594;-76
2024/04/16 00:37:02;;;;;;;20.90;8.70;;;;;;;8.24;86.38;98771.00;105481;1261;99088;-77
2024/04/16 00:39:48;;;;;;;19.70;8.60;;;;;;;8.25;86.86;98792.39;106094;1260;97961;-79
2024/04/16 00:42:33;;;;;;;15.60;9.40;;;;;;;8.29;87.40;98785.98;105668;1269;97890;-79
2024/04/16 00:45:19;;;;;;;14.00;8.10;;;;;;;8.32;88.15;98791.94;106235;1259;96803;-80
2024/04/16 00:48:05;;;;;;;15.60;7.90;;;;;;;8.32;88.52;98797.72;105612;1267;101357;-78
2024/04/16 00:50:53;;;;;;;20.50;8.90;;;;;;;8.34;89.23;98779.05;105558;1260;100401;-79
2024/04/16 00:53:40;;;;;;;18.90;8.80;;;;;;;8.36;89.88;98788.22;105750;1254;99413;-78
2024/04/16 00:56:26;;;;;;;17.40;8.20;;;;;;;8.37;90.34;98835.95;105685;1254;98019;-79
2024/04/16 00:59:13;;;;;;;14.80;8.50;;;;;;;8.35;90.57;98849.38;105629;1260;98589;-78
2024/04/16 01:01:58;;;;;;;19.70;8.80;;;;;;;8.35;91.22;98845.70;106875;1258;102602;-80
2024/04/16 01:04:44;;;;;;;15.90;8.80;;;;;;;8.31;92.31;98832.99;105832;1270;99260;-79
2024/04/16 01:07:31;;;;;;;16.30;9.10;;;;;;;8.28;93.18;98820.53;105856;1260;98616;-79
2024/04/16 01:10:16;;;;;;;14.50;9.00;;;;;;;8.32;93.74;98817.10;106314;1260;97889;-80
2024/04/16 01:13:02;;;;;;;16.30;9.20;;;;;;;8.34;94.06;98801.70;106203;1260;97978;-80
2024/04/16 01:15:48;;;;;;;14.20;8.80;;;;;;;8.35;94.13;98773.29;105892;1260;101451;-80
2024/04/16 01:18:33;;;;;;;12.10;8.70;;;;;;;8.39;94.60;98737.88;105819;1258;100343;-79
2024/04/16 01:21:19;;;;;;;16.40;8.60;;;;;;;8.44;94.68;98710.13;105903;1261;98143;-80
2024/04/16 01:24:05;;;;;;;17.40;10.00;;;;;;;8.47;95.08;98691.50;105763;1258;98083;-80
2024/04/16 01:26:50;;;;;;;19.60;10.70;;;;;;;8.49;95.30;98699.00;105837;1257;98733;-79
2024/04/16 01:29:36;;;;;;;16.80;9.90;;;;;;;8.50;95.61;98701.79;105806;1261;102102;-80
2024/04/16 01:32:21;;;;;;;22.50;10.50;;;;;;;8.51;95.53;98710.73;105670;1258;100307;-79
2024/04/16 01:35:07;;;;;;;16.40;9.40;;;;;;;8.53;95.59;98715.65;105668;1260;97967;-80
2024/04/16 01:37:52;;;;;;;20.90;9.70;;;;;;;8.54;95.72;98716.70;105839;1260;97950;-81
2024/04/16 01:40:38;;;;;;;18.30;9.30;;;;;;;8.55;95.66;98719.91;105871;1256;98492;-80
2024/04/16 01:43:23;;;;;;;18.50;8.80;;;;;;;8.58;95.73;98717.98;105832;1273;102183;-79
2024/04/16 01:46:09;;;;;;;16.00;9.20;;;;;;;8.59;95.84;98721.86;105823;1257;100378;-78
2024/04/16 01:48:54;;;;;;;18.10;9.00;;;;;;;8.61;95.58;98719.14;105746;1258;99138;-79
2024/04/16 01:51:40;;;;;;;17.00;9.80;;;;;;;8.62;95.63;98705.66;105938;1258;97922;-79
2024/04/16 01:54:25;;;;;;;18.90;9.70;;;;;;;8.64;95.78;98699.31;105941;1261;98186;-79
2024/04/16 01:57:11;;;;;;;16.00;8.90;;;;;;;8.65;95.74;98696.76;105804;1260;101951;-80
2024/04/16 01:59:56;;;;;;;18.00;9.40;;;;;;;8.66;95.74;98692.73;106150;1257;99241;-80
2024/04/16 02:02:41;;;;;;;15.10;9.70;;;;;;;8.67;95.63;98683.88;106084;1257;98095;-79
2024/04/16 02:05:27;;;;;;;15.90;10.10;;;;;;;8.66;95.89;98667.67;106194;1260;97883;-79
2024/04/16 02:08:13;;;;;;;17.90;10.00;;;;;;;8.64;95.75;98659.56;105781;1257;98414;-79
2024/04/16 02:11:00;;;;;;;17.10;10.30;;;;;;;8.63;95.91;98651.36;105729;1260;101386;-80
2024/04/16 02:13:45;;;;;;;16.90;10.30;;;;;;;8.60;95.97;98647.25;105784;1254;99126;-79
2024/04/16 02:16:31;;;;;;;16.20;10.20;;;;;;;8.55;96.17;98646.11;105829;1267;98973;-79
2024/04/16 02:19:17;;;;;;;17.10;10.00;;;;;;;8.52;96.30;98636.09;106382;1254;98819;-80
2024/04/16 02:22:02;;;;;;;19.30;11.60;;;;;;;8.50;96.42;98625.15;106477;1260;98689;-80
2024/04/16 02:24:48;;;;;;;18.60;11.20;;;;;;;8.48;96.36;98632.71;106332;1260;101332;-80
2024/04/16 02:27:34;;;;;;;17.40;10.80;;;;;;;8.46;96.20;98649.44;106224;1257;100328;-80
2024/04/16 02:30:19;;;;;;;18.70;10.60;;;;;;;8.48;96.16;98652.78;106336;1257;98025;-80
2024/04/16 02:33:04;;;;;;;21.10;12.30;;;;;;;8.48;95.84;98650.27;106276;1259;98921;-80
2024/04/16 02:35:50;;;;;;;17.70;10.80;;;;;;;8.48;95.91;98653.33;106265;1254;97962;-79
2024/04/16 02:38:36;;;;;;;15.30;10.60;;;;;;;8.47;95.74;98645.45;105837;1260;101320;-79
2024/04/16 02:41:21;;;;;;;16.40;10.40;;;;;;;8.45;95.77;98644.57;105782;1254;100128;-81
2024/04/16 02:44:07;;;;;;;17.50;9.80;;;;;;;8.41;95.98;98648.84;105818;1255;97877;-80
2024/04/16 02:46:53;;;;;;;22.10;11.30;;;;;;;8.37;96.06;98654.46;106208;1258;98069;-78
2024/04/16 02:49:38;;;;;;;18.90;11.00;;;;;;;8.34;96.62;98659.34;106450;1258;97872;-79
2024/04/16 02:52:24;;;;;;;19.60;11.60;;;;;;;8.34;97.26;98659.29;106235;1260;101342;-79
2024/04/16 02:55:11;;;;;;;18.70;12.10;;;;;;;8.36;97.69;98642.63;105693;1257;100389;-78
2024/04/16 02:57:56;;;;;;;21.30;11.50;;;;;;;8.37;98.39;98639.23;105639;1257;98045;-79
2024/04/16 03:00:42;;;;;;;21.00;11.90;;;;;;;8.38;98.81;98641.55;105786;1259;97964;-79
2024/04/16 03:03:27;;;;;;;20.00;12.10;;;;;;;8.40;99.06;98629.22;105723;1260;98506;-78
2024/04/16 03:06:13;;;;;;;21.90;12.90;;;;;;;8.42;99.41;98628.47;106144;1258;102621;-80
2024/04/16 03:08:59;;;;;;;21.80;12.50;;;;;;;8.43;99.41;98631.45;105919;1257;99245;-80
2024/04/16 03:11:45;;;;;;;21.00;12.70;;;;;;;8.43;99.49;98625.21;105851;1262;99213;-78
2024/04/16 03:14:30;;;;;;;22.70;12.80;;;;;;;8.42;99.68;98607.78;105825;1263;97971;-79
2024/04/16 03:17:16;;;;;;;19.60;12.10;;;;;;;8.41;99.98;98611.81;105729;1260;98468;-79
2024/04/16 03:20:01;;;;;;;21.50;12.90;;;;;;;8.40;99.94;98608.00;105663;1257;102266;-80
2024/04/16 03:22:51;;;;;;;19.30;12.70;;;;;;;8.38;99.90;98600.56;105646;1258;99131;-79
2024/04/16 03:25:40;;;;;;;21.40;13.00;;;;;;;8.36;99.96;98598.73;105738;1260;98536;-78
2024/04/16 03:28:26;;;;;;;21.10;13.10;;;;;;;8.34;100.00;98611.10;105719;1260;97966;-80
2024/04/16 03:31:13;;;;;;;24.20;13.70;;;;;;;8.34;100.00;98618.25;105753;1260;97893;-79
2024/04/16 03:33:58;;;;;;;21.70;13.60;;;;;;;8.33;100.00;98615.02;105822;1256;101362;-79
2024/04/16 03:36:44;;;;;;;24.00;13.20;;;;;;;8.29;100.00;98608.57;105827;1260;100079;-80
2024/04/16 03:39:32;;;;;;;18.10;12.40;;;;;;;8.28;100.00;98604.73;105690;1257;98938;-79
2024/04/16 03:42:18;;;;;;;21.20;13.70;;;;;;;8.25;100.00;98597.55;105661;1256;97972;-80
2024/04/16 03:45:04;;;;;;;18.10;12.60;;;;;;;8.23;100.00;98602.52;105621;1255;97975;-79
2024/04/16 03:47:49;;;;;;;16.90;11.80;;;;;;;8.22;100.00;98605.69;105839;1260;102169;-80
2024/04/16 03:50:35;;;;;;;17.50;11.20;;;;;;;8.22;100.00;98609.48;105579;1260;99117;-79
2024/04/16 03:53:20;;;;;;;16.00;10.50;;;;;;;8.20;100.00;98626.61;105734;1258;99353;-79
2024/04/16 03:56:06;;;;;;;12.80;9.00;;;;;;;8.20;100.00;98628.77;105756;1260;97905;-79
2024/04/16 03:59:14;;;;;;;12.00;8.80;;;;;;;8.19;100.00;98628.87;105621;1260;97937;-80
2024/04/16 04:02:00;;;;;;;9.50;7.40;;;;;;;8.20;100.00;98635.45;105743;1260;102036;-81
2024/04/16 04:04:45;;;;;;;8.70;7.00;;;;;;;8.23;100.00;98634.73;105731;1255;108668;-79
2024/04/16 04:07:31;;;;;;;10.40;6.80;;;;;;;8.24;100.00;98640.14;106398;1253;97904;-80
2024/04/16 04:10:17;;;;;;;11.20;7.90;;;;;;;8.25;100.00;98645.28;106202;1256;97906;-79
2024/04/16 04:13:03;;;;;;;12.50;7.90;;;;;;;8.27;100.00;98651.06;106275;1254;98381;-79
2024/04/16 04:15:48;;;;;;;10.50;7.50;;;;;;;8.30;100.00;98670.37;106243;1254;102610;-80
2024/04/16 04:18:34;;;;;;;9.50;6.30;;;;;;;8.32;100.00;98685.13;106233;1253;100366;-79
2024/04/16 04:21:20;;;;;;;9.50;7.50;;;;;;;8.35;100.00;98684.20;105818;1257;99087;-80
2024/04/16 04:24:06;;;;;;;8.20;6.40;;;;;;;8.38;100.00;98694.09;106159;1257;97960;-80
2024/04/16 04:26:51;;;;;;;11.90;7.90;;;;;;;8.40;100.00;98701.67;105768;1257;98472;-80
2024/04/16 04:29:38;;;;;;;11.40;7.60;;;;;;;8.42;100.00;98709.20;106148;1257;101348;-80
2024/04/16 04:32:25;;;;;;;12.60;7.10;;;;;;;8.43;100.00;98711.20;106299;1257;99999;-81
2024/04/16 04:35:11;;;;;;;8.80;7.40;;;;;;;8.43;100.00;98714.33;106330;1257;98434;-80
2024/04/16 04:37:56;;;;;;;8.70;6.90;;;;;;;8.43;100.00;98725.56;106338;1254;97967;-79
2024/04/16 04:40:42;;;;;;;7.00;5.90;;;;;;;8.43;100.00;98729.27;105923;1254;97959;-81
2024/04/16 04:43:27;;;;;;;7.10;5.30;;;;;;;8.42;100.00;98738.95;106435;1254;101331;-79
2024/04/16 04:46:13;;;;;;;10.40;5.00;;;;;;;8.39;100.00;98755.81;106460;1254;99108;-80
2024/04/16 04:48:58;;;;;;;5.10;3.60;;;;;;;8.35;100.00;98765.29;106399;1257;98964;-79
2024/04/16 04:51:44;;;;;;;3.70;2.20;;;;;;;8.28;100.00;98774.49;106277;1254;97957;-79
2024/04/16 04:54:29;;;;;;;1.70;1.10;;;;;;;8.17;99.51;98781.30;105799;1257;97881;-80
2024/04/16 04:57:15;;;;;;;4.80;1.40;;;;;;;8.10;99.03;98798.87;106365;1257;102527;-79
2024/04/16 05:00:00;;;;;;;2.60;1.70;;;;;;;8.12;98.96;98808.09;106275;1257;99835;-81
2024/04/16 05:02:45;;;;;;;2.40;1.20;;;;;;;8.12;98.86;98810.58;105693;1253;99006;-80
2024/04/16 05:05:31;;;;;;;2.30;1.30;;;;;;;8.08;97.44;98817.09;105864;1257;98078;-78
2024/04/16 05:08:18;;;;;;;4.70;1.80;;;;;;;8.03;97.37;98824.10;105675;1260;98145;-80
2024/04/16 05:11:03;;;;;;;1.70;1.50;;;;;;;8.02;97.45;98829.06;105779;1255;101375;-78
2024/04/16 05:13:49;;;;;;;3.50;1.10;;;;;;;7.99;97.37;98834.61;105754;1255;99078;-80
2024/04/16 05:16:38;;;;;;;2.20;1.10;;;;;;;7.89;97.38;98849.27;105864;1260;97910;-79
2024/04/16 05:19:24;;;;;;;3.10;1.20;;;;;;;7.84;97.24;98855.55;105595;1257;97861;-78
2024/04/16 05:22:09;;;;;;;1.80;1.20;;;;;;;7.78;96.80;98857.48;105582;1256;100463;-78
2024/04/16 05:24:55;;;;;;;2.00;1.30;;;;;;;7.74;97.20;98853.84;105607;1257;101404;-78
2024/04/16 05:27:40;;;;;;;1.30;1.10;;;;;;;7.75;97.23;98854.61;105622;1255;99399;-80
2024/04/16 05:30:26;;;;;;;1.70;1.50;;;;;;;7.76;97.05;98854.08;105665;1261;98493;-79
2024/04/16 05:33:12;;;;;;;3.80;2.90;;;;;;;7.78;96.12;98859.39;105781;1260;97915;-79
2024/04/16 05:35:57;;;;;;;7.40;2.60;;;;;;;7.77;95.85;98865.18;105353;1263;97992;-79
2024/04/16 05:38:42;;;;;;;9.70;5.90;;;;;;;7.78;95.52;98874.27;105920;1256;101389;-79
2024/04/16 05:41:28;;;;;;;4.90;4.00;;;;;;;7.79;94.97;98869.20;105770;1255;99873;-79
2024/04/16 05:44:13;;;;;;;5.10;4.00;;;;;;;7.81;94.83;98868.98;105659;1260;98651;-79
2024/04/16 05:46:59;;;;;;;2.40;2.10;;;;;;;7.86;94.58;98873.44;105725;1255;98027;-78
2024/04/16 05:49:45;;;;;;;3.00;2.70;;;;;;;7.88;94.02;98876.38;105788;1260;97971;-79
2024/04/16 05:52:30;;;;;;;12.70;3.30;;;;;;;7.89;93.74;98883.83;105829;1257;101349;-79
2024/04/16 05:55:16;;;;;;;2.70;2.40;;;;;;;7.88;92.69;98884.46;105860;1260;99098;-79
2024/04/16 05:58:02;;;;;;;2.20;2.00;;;;;;;7.85;91.57;98883.28;105758;1255;97968;-79
2024/04/16 06:00:47;;;;;;;4.40;2.30;;;;;;;7.81;90.83;98880.79;105855;1260;97954;-79
2024/04/16 06:03:33;;;;;;;4.20;1.90;;;;;;;7.77;90.68;98892.05;105755;1255;99798;-79
2024/04/16 06:06:18;;;;;;;2.80;2.00;;;;;;;7.77;91.09;98898.08;105777;1255;102660;-80
2024/04/16 06:09:04;;;;;;;2.30;1.80;;;;;;;7.78;90.76;98900.20;105706;1273;100313;-79
2024/04/16 06:11:49;;;;;;;3.70;1.60;;;;;;;7.76;90.76;98909.80;105740;1254;99301;-80
2024/04/16 06:14:35;;;;;;;4.20;1.80;;;;;;;7.69;90.73;98913.34;105741;1255;97965;-79
2024/04/16 06:17:20;;;;;;;1.80;1.30;;;;;;;7.65;91.43;98920.70;105794;1257;98408;-81
2024/04/16 06:20:09;;;;;;;2.20;1.70;;;;;;;7.57;91.45;98925.02;105902;1258;102001;-79
2024/04/16 06:22:55;;;;;;;2.10;1.70;;;;;;;7.49;91.90;98928.10;105957;1257;100380;-80
2024/04/16 06:25:41;;;;;;;2.70;2.20;;;;;;;7.42;92.32;98927.79;105789;1258;98403;-80
2024/04/16 06:28:27;;;;;;;2.00;1.80;;;;;;;7.39;92.17;98931.97;105704;1258;98004;-80
2024/04/16 06:31:13;;;;;;;3.20;2.50;;;;;;;7.39;92.14;98931.23;106374;1254;97884;-80
2024/04/16 06:33:58;;;;;;;5.20;2.90;;;;;;;7.50;92.89;98931.50;106296;1255;102575;-79
2024/04/16 06:36:44;;;;;;;5.20;2.80;;;;;;;7.60;92.57;98923.64;105585;1258;99250;-78
2024/04/16 06:39:30;;;;;;;4.30;2.50;;;;;;;7.64;91.53;98922.59;105763;1259;97997;-80
2024/04/16 06:42:15;;;;;;;3.90;2.80;;;;;;;7.66;90.55;98926.19;105788;1258;97990;-80
2024/04/16 06:45:00;;;;;;;2.90;2.10;;;;;;;7.73;90.54;98932.69;105742;1254;97625;-79
2024/04/16 06:47:46;;;;;;;5.40;2.40;;;;;;;7.86;90.75;98938.33;105787;1259;102623;-79
2024/04/16 06:50:31;;;;;;;4.40;1.70;;;;;;;7.95;89.76;98935.83;105743;1256;99105;-79
2024/04/16 06:53:17;;;;;;;5.00;2.20;;;;;;;7.99;89.45;98933.59;105673;1254;97984;-79
2024/04/16 06:56:06;;;;;;;3.70;2.30;;;;;;;8.11;89.28;98931.25;105621;1256;99210;-79
2024/04/16 06:58:53;;;;;;;3.90;1.70;;;;;;;8.23;88.97;98936.30;105969;1254;98486;-80
2024/04/16 07:01:39;;;;;;;6.70;2.50;;;;;;;8.33;88.28;98929.79;106483;1254;101345;-79
2024/04/16 07:04:24;;;;;;;4.80;2.20;;;;;;;8.44;87.34;98923.77;106569;1254;99145;-80
2024/04/16 07:07:10;;;;;;;4.70;2.70;;;;;;;8.48;86.08;98927.02;106685;1259;98985;-87
2024/04/16 07:09:58;;;;;;;5.20;2.00;;;;;;;8.48;85.18;98926.02;106530;1259;97948;-88
2024/04/16 07:12:44;;;;;;;5.80;2.60;;;;;;;8.53;84.68;98925.61;106080;1254;98419;-81
2024/04/16 07:15:30;;;;;;;3.60;2.70;;;;;;;8.63;83.68;98928.48;106238;1254;103246;-83
2024/04/16 07:18:15;;;;;;;7.90;2.40;;;;;;;8.67;82.59;98932.80;106041;1260;100048;-82
2024/04/16 07:21:01;;;;;;;2.60;1.80;;;;;;;8.64;82.09;98935.48;106295;1256;97958;-83
2024/04/16 07:23:46;;;;;;;3.50;1.70;;;;;;;8.67;81.80;98938.02;106133;1256;97975;-81
2024/04/16 07:26:32;;;;;;;3.80;2.30;;;;;;;8.64;81.16;98939.23;106319;1255;99111;-82
2024/04/16 07:29:17;;;;;;;4.70;2.70;;;;;;;8.59;80.44;98939.96;106292;1258;102622;-81
2024/04/16 07:32:03;;;;;;;4.70;1.80;;;;;;;8.54;79.44;98953.66;106136;1259;100365;-83
2024/04/16 07:34:49;;;;;;;4.40;2.30;;;;;;;8.49;78.85;98958.27;106413;1254;99214;-80
2024/04/16 07:37:35;;;;;;;2.80;1.80;;;;;;;8.47;79.39;98960.50;106228;1257;98851;-82
2024/04/16 07:40:21;;;;;;;3.20;2.00;;;;;;;8.52;79.85;98954.57;106389;1254;98416;-81
2024/04/16 07:43:07;;;;;;;5.70;2.10;;;;;;;8.66;79.91;98961.80;106281;1255;101338;-81
2024/04/16 07:45:52;;;;;;;6.20;2.00;;;;;;;8.76;79.39;98956.48;106439;1259;99164;-82
2024/04/16 07:48:38;;;;;;;3.00;2.30;;;;;;;8.85;79.10;98958.73;106345;1258;98501;-80
2024/04/16 07:51:23;;;;;;;4.80;2.00;;;;;;;8.88;78.06;98960.19;106238;1255;99155;-80
2024/04/16 07:54:09;;;;;;;4.90;2.00;;;;;;;8.88;76.90;98957.73;106408;1255;97935;-79
2024/04/16 07:56:54;;;;;;;6.70;2.20;;;;;;;8.85;76.10;98958.00;105956;1254;102572;-82
2024/04/16 07:59:40;;;;;;;2.30;1.50;;;;;;;8.81;75.95;98953.08;106377;1257;99246;-80
2024/04/16 08:02:26;;;;;;;6.50;2.70;;;;;;;8.84;75.81;98953.80;105732;1258;99495;-83
2024/04/16 08:05:12;;;;;;;4.60;1.80;;;;;;;8.94;75.96;98960.23;105734;1261;98023;-78
2024/04/16 08:07:57;;;;;;;6.20;2.50;;;;;;;9.01;74.85;98969.80;105775;1253;99638;-77
2024/04/16 08:10:43;;;;;;;8.80;4.10;;;;;;;8.99;74.58;98976.74;105796;1258;101462;-82
2024/04/16 08:13:32;;;;;;;4.60;2.90;;;;;;;8.97;74.43;98974.50;105750;1255;99154;-83
2024/04/16 08:16:17;;;;;;;5.40;2.90;;;;;;;8.99;74.57;98976.41;106039;1255;107143;-85
2024/04/16 08:19:04;;;;;;;7.20;2.70;;;;;;;9.04;73.91;98966.81;106228;1254;97973;-83
2024/04/16 08:21:50;;;;;;;7.60;2.10;;;;;;;9.09;73.48;98970.60;106690;1258;97841;-85
2024/04/16 08:24:36;;;;;;;4.30;1.70;;;;;;;9.10;73.07;98962.95;106748;1254;102027;-85
2024/04/16 08:27:23;;;;;;;5.50;2.20;;;;;;;9.14;73.23;98961.59;106117;1256;99097;-82
2024/04/16 08:30:09;;;;;;;4.40;1.80;;;;;;;9.23;73.04;98965.80;106358;1255;97871;-85
2024/04/16 08:32:55;;;;;;;2.60;1.80;;;;;;;9.28;71.92;98962.81;106371;1254;98444;-82
2024/04/16 08:35:42;;;;;;;3.00;1.80;;;;;;;9.27;71.22;98966.11;106218;1255;98497;-82
2024/04/16 08:38:28;;;;;;;5.10;2.30;;;;;;;9.24;70.93;98967.27;106289;1258;102597;-84
2024/04/16 08:41:13;;;;;;;2.80;1.70;;;;;;;9.27;71.41;98970.67;106247;1254;99105;-83
2024/04/16 08:44:00;;;;;;;5.50;1.70;;;;;;;9.28;70.91;98987.59;106196;1254;99250;-84
2024/04/16 08:46:47;;;;;;;6.40;2.00;;;;;;;9.27;70.04;98999.15;106468;1258;98287;-82
2024/04/16 08:49:34;;;;;;;3.00;1.70;;;;;;;9.22;69.93;99008.65;106856;1254;97758;-83
2024/04/16 08:52:21;;;;;;;7.00;1.90;;;;;;;9.24;69.22;99013.93;106540;1254;101350;-85
2024/04/16 08:55:07;;;;;;;6.30;1.70;;;;;;;9.25;68.01;99024.48;106246;1254;99123;-83
2024/04/16 08:57:53;;;;;;;3.70;1.60;;;;;;;9.22;67.56;99030.10;105971;1254;98987;-84
2024/04/16 09:00:39;;;;;;;6.80;1.70;;;;;;;9.21;67.85;99026.15;106210;1261;98029;-83
2024/04/16 09:03:27;;;;;;;3.70;1.40;;;;;;;9.21;67.78;99036.77;106259;1254;98050;-83
2024/04/16 09:06:15;;;;;;;6.20;2.00;;;;;;;9.19;67.46;99046.92;106033;1262;101313;-82
2024/04/16 09:09:01;;;;;;;3.20;1.90;;;;;;;9.14;67.78;99046.71;106465;1257;108259;-84
2024/04/16 09:11:47;;;;;;;3.00;2.00;;;;;;;9.17;68.42;99057.86;106529;1259;99350;-82
2024/04/16 09:14:33;;;;;;;5.10;2.20;;;;;;;9.22;68.01;99057.08;106278;1256;98057;-83
2024/04/16 09:17:18;;;;;;;5.60;2.30;;;;;;;9.27;68.05;99057.85;106357;1254;98407;-83
2024/04/16 09:20:04;;;;;;;4.60;2.20;;;;;;;9.39;69.02;99058.50;106260;1260;110107;-81
2024/04/16 09:22:52;;;;;;;5.40;2.10;;;;;;;9.48;68.23;99062.93;106046;1260;99149;-86
2024/04/16 09:25:39;;;;;;;5.20;2.00;;;;;;;9.48;67.16;99065.76;106297;1254;98018;-83
2024/04/16 09:28:25;;;;;;;4.50;2.60;;;;;;;9.44;66.50;99073.31;106610;1259;97987;-84
2024/04/16 09:31:15;;;;;;;2.10;1.90;;;;;;;9.44;67.33;99067.10;106193;1255;97987;-84
2024/04/16 09:34:08;;;;;;;8.40;2.50;;;;;;;9.46;66.91;99069.15;106180;1260;102144;-86
2024/04/16 09:36:54;;;;;;;6.00;2.60;;;;;;;9.43;66.52;99074.84;106260;1254;99864;-85
2024/04/16 09:39:41;;;;;;;5.80;1.90;;;;;;;9.41;66.84;99083.73;106304;1254;97983;-83
2024/04/16 09:42:29;;;;;;;4.10;2.40;;;;;;;9.44;67.37;99097.86;106259;1254;97935;-83
2024/04/16 09:45:15;;;;;;;3.80;1.90;;;;;;;9.54;67.59;99096.44;106373;1254;97964;-84
2024/04/16 09:48:05;;;;;;;5.80;1.60;;;;;;;9.63;66.76;99098.38;106205;1258;101350;-84
2024/04/16 09:50:50;;;;;;;4.60;1.70;;;;;;;9.64;65.37;99098.09;106168;1258;100536;-85
2024/04/16 09:53:37;;;;;;;3.10;1.70;;;;;;;9.58;64.78;99104.14;106212;1255;99039;-86
2024/04/16 09:56:26;;;;;;;2.40;1.60;;;;;;;9.51;64.95;99114.91;106130;1255;98057;-84
2024/04/16 09:59:14;;;;;;;2.90;1.30;;;;;;;9.53;65.48;99114.83;106235;1254;97985;-84
2024/04/16 10:02:01;;;;;;;3.00;1.30;;;;;;;9.55;64.31;99120.95;105986;1254;101839;-83
2024/04/16 10:04:48;;;;;;;6.40;1.60;;;;;;;9.53;63.82;99119.15;106320;1257;99339;-84
2024/04/16 10:07:34;;;;;;;4.80;1.40;;;;;;;9.53;63.19;99114.59;106359;1260;98172;-84
2024/04/16 10:10:20;;;;;;;3.90;1.70;;;;;;;9.58;63.79;99112.81;106309;1260;97907;-87
2024/04/16 10:13:06;;;;;;;6.00;2.00;;;;;;;9.62;63.41;99112.54;106448;1253;97868;-85
2024/04/16 10:15:52;;;;;;;3.90;2.00;;;;;;;9.63;63.09;99106.58;106223;1256;101360;-85
2024/04/16 10:18:38;;;;;;;7.20;2.60;;;;;;;9.63;63.14;99106.24;106346;1253;100315;-84
2024/04/16 10:21:26;;;;;;;10.40;4.20;;;;;;;9.67;63.79;99104.40;106261;1253;97866;-83
2024/04/16 10:24:11;;;;;;;5.60;2.00;;;;;;;9.71;63.02;99100.21;106100;1255;97973;-82
2024/04/16 10:27:01;;;;;;;2.90;1.50;;;;;;;9.72;63.01;99103.14;106007;1260;97999;-83
2024/04/16 10:29:47;;;;;;;5.30;1.90;;;;;;;9.77;63.71;99102.44;106159;1253;101348;-83
2024/04/16 10:32:33;;;;;;;2.60;1.60;;;;;;;9.87;64.43;99105.98;106163;1254;100417;-82
2024/04/16 10:35:20;;;;;;;5.90;2.20;;;;;;;9.95;63.59;99105.34;105977;1253;98007;-79
2024/04/16 10:38:08;;;;;;;5.20;1.90;;;;;;;9.99;63.61;99112.01;106740;1254;97884;-81
2024/04/16 10:40:55;;;;;;;2.60;1.60;;;;;;;9.99;62.83;99115.20;106083;1254;98592;-80
2024/04/16 10:43:44;;;;;;;3.70;1.70;;;;;;;9.98;62.91;99108.27;106302;1258;102600;-82
2024/04/16 10:46:30;;;;;;;3.20;2.10;;;;;;;10.01;62.68;99106.22;106114;1257;99253;-83
2024/04/16 10:49:18;;;;;;;2.70;1.60;;;;;;;10.07;62.58;99102.84;106419;1254;99350;-85
2024/04/16 10:52:09;;;;;;;4.70;1.60;;;;;;;10.11;62.34;99093.73;106135;1253;97926;-82
2024/04/16 10:54:55;;;;;;;4.90;1.60;;;;;;;10.09;61.75;99081.65;106446;1253;98035;-79
2024/04/16 10:57:41;;;;;;;3.70;1.60;;;;;;;10.09;62.02;99080.83;106462;1253;103472;-80
2024/04/16 11:00:27;;;;;;;2.30;1.40;;;;;;;10.13;62.16;99075.24;106454;1253;100519;-82
2024/04/16 11:03:13;;;;;;;3.50;2.10;;;;;;;10.22;62.79;99068.31;106288;1259;98217;-82
2024/04/16 11:05:59;;;;;;;4.20;1.50;;;;;;;10.34;62.76;99067.77;106164;1260;97970;-82
2024/04/16 11:08:45;;;;;;;3.90;1.80;;;;;;;10.40;62.23;99070.59;106377;1255;98608;-81
2024/04/16 11:11:34;;;;;;;3.30;1.60;;;;;;;10.46;62.54;99069.25;106289;1258;101458;-83
2024/04/16 11:14:20;;;;;;;4.20;1.80;;;;;;;10.49;61.77;99069.70;106096;1256;99120;-85
2024/04/16 11:17:05;;;;;;;3.20;1.70;;;;;;;10.51;61.93;99074.91;106193;1256;98085;-84
2024/04/16 11:19:52;;;;;;;3.90;2.10;;;;;;;10.53;61.63;99076.26;106210;1255;98007;-84
2024/04/16 11:22:38;;;;;;;26.20;14.80;;;;;;;10.55;61.66;99084.84;106454;1254;97908;-81
2024/04/16 11:25:23;;;;;;;6.50;4.10;;;;;;;10.50;60.96;99079.70;106546;1257;102546;-81
2024/04/16 11:28:09;;;;;;;3.50;1.80;;;;;;;10.44;60.22;99074.98;106230;1254;99262;-82
2024/04/16 11:30:56;;;;;;;3.90;1.90;;;;;;;10.41;60.33;99080.34;106248;1255;97992;-82
2024/04/16 11:33:41;;;;;;;5.40;2.10;;;;;;;10.36;59.90;99089.83;105961;1255;97968;-82
2024/04/16 11:36:27;;;;;;;2.50;1.40;;;;;;;10.27;60.36;99091.98;106812;1255;98003;-80
2024/04/16 11:39:13;;;;;;;1.30;1.20;;;;;;;10.18;60.14;99086.23;106524;1255;101492;-84
2024/04/16 11:41:59;;;;;;;1.60;1.30;;;;;;;10.11;60.27;99085.73;106094;1254;99101;-83
2024/04/16 11:44:45;;;;;;;2.70;1.50;;;;;;;10.08;60.58;99083.77;106360;1255;97852;-83
2024/04/16 11:47:31;;;;;;;4.00;1.40;;;;;;;10.11;60.70;99084.46;106674;1259;95904;-85
2024/04/16 11:50:17;;;;;;;1.70;1.20;;;;;;;10.19;61.47;99079.25;106330;1255;98427;-83
2024/04/16 11:53:02;;;;;;;2.30;1.30;;;;;;;10.29;61.32;99077.51;106249;1254;101356;-83
2024/04/16 11:55:48;;;;;;;2.90;1.60;;;;;;;10.39;61.91;99076.64;106109;1253;100368;-84
2024/04/16 11:58:34;;;;;;;4.50;1.30;;;;;;;10.52;62.05;99067.94;106204;1254;99554;-83
2024/04/16 12:01:20;;;;;;;3.00;1.60;;;;;;;10.65;61.63;99060.83;106031;1259;97948;-83
2024/04/16 12:04:07;;;;;;;3.00;1.40;;;;;;;10.76;62.04;99056.90;106166;1254;98497;-84
2024/04/16 12:06:53;;;;;;;2.00;1.20;;;;;;;10.82;61.55;99053.36;106191;1254;101296;-85
2024/04/16 12:09:38;;;;;;;3.90;1.40;;;;;;;10.80;61.04;99060.96;105968;1254;99146;-83
2024/04/16 12:12:23;;;;;;;3.70;1.50;;;;;;;10.77;61.19;99060.89;106082;1255;99298;-84
2024/04/16 12:15:10;;;;;;;3.80;1.60;;;;;;;10.75;61.02;99064.41;105938;1256;97997;-84
2024/04/16 12:17:56;;;;;;;2.70;1.60;;;;;;;10.75;61.26;99069.72;106019;1258;99635;-84
2024/04/16 12:20:41;;;;;;;5.30;1.80;;;;;;;10.81;61.32;99066.22;106038;1255;102576;-85
2024/04/16 12:23:27;;;;;;;3.60;1.50;;;;;;;10.92;61.33;99068.39;106106;1259;178760;-84
2024/04/16 12:26:13;;;;;;;3.50;1.20;;;;;;;11.05;60.89;99064.92;106255;1255;97972;-83
2024/04/16 12:28:59;;;;;;;3.40;1.20;;;;;;;11.07;59.54;99066.59;106093;1256;97867;-83
2024/04/16 12:31:45;;;;;;;6.50;1.60;;;;;;;11.07;59.88;99078.55;106350;1255;97751;-82
2024/04/16 12:34:31;;;;;;;5.50;1.60;;;;;;;11.05;59.34;99071.60;106044;1258;102233;-82
2024/04/16 12:37:17;;;;;;;3.60;1.40;;;;;;;10.97;58.97;99069.91;106297;1254;99716;-83
2024/04/16 12:40:02;;;;;;;2.80;1.30;;;;;;;10.89;59.08;99076.77;106072;1256;97927;-83
2024/04/16 12:42:48;;;;;;;2.40;1.10;;;;;;;10.79;59.45;99074.41;106024;1254;97941;-82
2024/04/16 12:45:33;;;;;;;2.60;1.30;;;;;;;10.74;59.76;99072.46;106096;1256;97891;-82
2024/04/16 12:48:22;;;;;;;2.50;1.30;;;;;;;10.73;60.46;99071.44;106347;1258;102549;-84
2024/04/16 12:51:08;;;;;;;3.10;1.30;;;;;;;10.72;60.02;99068.86;106022;1255;100360;-84